Time,TemperatureF,DewpointF,PressureIn,WindDirection,WindDirectionDegrees,WindSpeedMPH,WindSpeedGustMPH,Humidity,HourlyPrecipIn,Conditions,Clouds,dailyrainin,SoftwareType,DateUTC
2013-09-07 00:00:00,82.5,70.4,30.02,ENE,74,3.0,4.0,67,0.00,,,0.00,WeatherCatV1.15B25,2013-09-07 10:00:00,
2013-09-07 00:05:00,82.4,71.2,30.02,ENE,78,2.0,4.0,69,0.00,,,0.00,WeatherCatV1.15B25,2013-09-07 10:05:00,
2013-09-07 00:10:00,81.9,70.7,30.02,ENE,72,3.0,8.0,69,0.00,,,0.00,WeatherCatV1.15B25,2013-09-07 10:10:00,
2013-09-07 00:20:00,82.9,71.2,30.02,East,94,2.0,6.0,68,0.00,,,0.00,WeatherCatV1.15B25,2013-09-07 10:20:00,
2013-09-07 00:23:00,81.8,71.0,30.02,ENE,77,3.0,7.0,70,0.00,,,0.00,WeatherCatV1.15B25,2013-09-07 10:23:00,
2013-09-07 00:25:00,82.7,70.6,30.02,East,94,3.0,8.0,67,0.00,,,0.00,WeatherCatV1.15B25,2013-09-07 10:25:00,
2013-09-07 00:30:00,82.6,70.5,30.02,ENE,75,3.0,5.0,67,0.00,,,0.00,WeatherCatV1.15B25,2013-09-07 10:30:00,
2013-09-07 00:35:00,82.4,71.6,30.02,East,79,2.0,9.0,70,0.00,,,0.00,WeatherCatV1.15B25,2013-09-07 10:35:00,
2013-09-07 00:40:00,82.1,70.9,30.02,ENE,75,3.0,9.0,69,0.00,,,0.00,WeatherCatV1.15B25,2013-09-07 10:40:00,
2013-09-07 00:50:00,82.9,71.2,30.02,East,94,2.0,6.0,68,0.00,,,0.00,WeatherCatV1.15B25,2013-09-07 10:50:00,
2013-09-07 00:54:00,81.8,71.0,30.02,ENE,77,3.0,7.0,70,0.00,,,0.00,WeatherCatV1.15B25,2013-09-07 10:54:00,
2013-09-07 00:55:00,82.7,70.6,30.02,East,89,4.0,7.0,67,0.00,,,0.00,WeatherCatV1.15B25,2013-09-07 10:55:00,
2013-09-07 01:00:00,82.4,71.2,30.02,ENE,74,3.0,4.0,69,0.00,,,0.00,WeatherCatV1.15B25,2013-09-07 11:00:00,
2013-09-07 01:05:00,82.3,71.5,30.02,ENE,76,2.0,4.0,70,0.00,,,0.00,WeatherCatV1.15B25,2013-09-07 11:05:00,
2013-09-07 01:10:00,81.8,71.0,30.02,ENE,70,3.0,5.0,70,0.00,,,0.00,WeatherCatV1.15B25,2013-09-07 11:10:00,
2013-09-07 01:20:00,82.9,71.2,30.02,East,94,2.0,6.0,68,0.00,,,0.00,WeatherCatV1.15B25,2013-09-07 11:20:00,
2013-09-07 01:22:00,81.7,70.9,30.02,ENE,77,3.0,5.0,70,0.00,,,0.00,WeatherCatV1.15B25,2013-09-07 11:22:00,
2013-09-07 01:25:00,82.7,70.6,30.02,East,89,4.0,7.0,67,0.00,,,0.00,WeatherCatV1.15B25,2013-09-07 11:25:00,
2013-09-07 01:30:00,82.4,71.2,30.02,ENE,74,3.0,4.0,69,0.00,,,0.00,WeatherCatV1.15B25,2013-09-07 11:30:00,
2013-09-07 01:35:00,82.3,71.5,30.02,ENE,76,2.0,4.0,70,0.00,,,0.00,WeatherCatV1.15B25,2013-09-07 11:35:00,
2013-09-07 01:40:00,81.8,71.0,30.02,ENE,70,3.0,5.0,70,0.00,,,0.00,WeatherCatV1.15B25,2013-09-07 11:40:00,
2013-09-07 01:50:00,82.9,71.2,30.02,East,94,2.0,6.0,68,0.00,,,0.00,WeatherCatV1.15B25,2013-09-07 11:50:00,
2013-09-07 01:52:00,81.7,70.9,30.02,ENE,77,3.0,5.0,70,0.00,,,0.00,WeatherCatV1.15B25,2013-09-07 11:52:00,
2013-09-07 01:55:00,82.7,70.6,30.02,East,89,4.0,7.0,67,0.00,,,0.00,WeatherCatV1.15B25,2013-09-07 11:55:00,
2013-09-07 02:00:00,82.4,71.2,30.02,ENE,74,3.0,4.0,69,0.00,,,0.00,WeatherCatV1.15B25,2013-09-07 12:00:00,
2013-09-07 02:05:00,82.3,71.5,30.02,ENE,76,2.0,4.0,70,0.00,,,0.00,WeatherCatV1.15B25,2013-09-07 12:05:00,
2013-09-07 02:10:00,81.8,71.0,30.02,ENE,70,3.0,5.0,70,0.00,,,0.00,WeatherCatV1.15B25,2013-09-07 12:10:00,
2013-09-07 02:20:00,82.9,71.2,30.02,East,94,2.0,6.0,68,0.00,,,0.00,WeatherCatV1.15B25,2013-09-07 12:20:00,
2013-09-07 02:22:00,81.7,70.9,30.02,ENE,77,3.0,5.0,70,0.00,,,0.00,WeatherCatV1.15B25,2013-09-07 12:22:00,
2013-09-07 02:25:00,82.7,70.6,30.02,East,89,4.0,7.0,67,0.00,,,0.00,WeatherCatV1.15B25,2013-09-07 12:25:00,
2013-09-07 02:30:00,82.4,71.2,30.02,ENE,74,3.0,4.0,69,0.00,,,0.00,WeatherCatV1.15B25,2013-09-07 12:30:00,
2013-09-07 02:35:00,82.3,71.5,30.02,ENE,76,2.0,4.0,70,0.00,,,0.00,WeatherCatV1.15B25,2013-09-07 12:35:00,
2013-09-07 02:40:00,81.8,71.0,30.02,ENE,70,3.0,5.0,70,0.00,,,0.00,WeatherCatV1.15B25,2013-09-07 12:40:00,
2013-09-07 02:50:00,82.9,71.2,30.02,East,94,2.0,6.0,68,0.00,,,0.00,WeatherCatV1.15B25,2013-09-07 12:50:00,
2013-09-07 02:52:00,81.7,70.9,30.02,ENE,77,3.0,5.0,70,0.00,,,0.00,WeatherCatV1.15B25,2013-09-07 12:52:00,
2013-09-07 02:55:00,82.7,70.6,30.02,East,89,4.0,7.0,67,0.00,,,0.00,WeatherCatV1.15B25,2013-09-07 12:55:00,
2013-09-07 03:00:00,82.4,71.2,30.02,ENE,74,3.0,4.0,69,0.00,,,0.00,WeatherCatV1.15B25,2013-09-07 13:00:00,
2013-09-07 03:05:00,82.3,71.5,30.02,ENE,76,2.0,4.0,70,0.00,,,0.00,WeatherCatV1.15B25,2013-09-07 13:05:00,
2013-09-07 03:10:00,81.8,71.0,30.02,ENE,70,3.0,5.0,70,0.00,,,0.00,WeatherCatV1.15B25,2013-09-07 13:10:00,
2013-09-07 03:20:00,82.9,71.2,30.02,East,94,2.0,6.0,68,0.00,,,0.00,WeatherCatV1.15B25,2013-09-07 13:20:00,
2013-09-07 03:22:00,81.7,70.9,30.02,ENE,77,3.0,5.0,70,0.00,,,0.00,WeatherCatV1.15B25,2013-09-07 13:22:00,
2013-09-07 03:25:00,82.7,70.6,30.02,East,89,4.0,7.0,67,0.00,,,0.00,WeatherCatV1.15B25,2013-09-07 13:25:00,
2013-09-07 03:30:00,82.4,71.2,30.02,ENE,74,3.0,4.0,69,0.00,,,0.00,WeatherCatV1.15B25,2013-09-07 13:30:00,
2013-09-07 03:35:00,82.3,71.5,30.02,ENE,76,2.0,4.0,70,0.00,,,0.00,WeatherCatV1.15B25,2013-09-07 13:35:00,
2013-09-07 03:40:00,81.8,71.0,30.02,ENE,70,3.0,5.0,70,0.00,,,0.00,WeatherCatV1.15B25,2013-09-07 13:40:00,
2013-09-07 03:45:00,83.2,71.5,30.02,East,90,3.0,8.0,68,0.00,,,0.00,WeatherCatV1.15B25,2013-09-07 13:45:00,
2013-09-07 03:50:00,82.8,71.1,30.02,East,100,3.0,9.0,68,0.00,,,0.00,WeatherCatV1.15B25,2013-09-07 13:50:00,
2013-09-07 03:52:00,81.7,70.9,30.02,ENE,77,3.0,5.0,70,0.00,,,0.00,WeatherCatV1.15B25,2013-09-07 13:52:00,
2013-09-07 03:55:00,82.7,70.2,30.02,East,83,4.0,4.0,66,0.00,,,0.00,WeatherCatV1.15B25,2013-09-07 13:55:00,
2013-09-07 04:00:00,82.4,71.2,30.02,ENE,74,3.0,4.0,69,0.00,,,0.00,WeatherCatV1.15B25,2013-09-07 14:00:00,
2013-09-07 04:05:00,82.3,71.5,30.02,ENE,76,2.0,4.0,70,0.00,,,0.00,WeatherCatV1.15B25,2013-09-07 14:05:00,
2013-09-07 04:10:00,81.8,71.0,30.02,ENE,70,3.0,5.0,70,0.00,,,0.00,WeatherCatV1.15B25,2013-09-07 14:10:00,
2013-09-07 04:15:00,83.2,71.5,30.02,East,90,3.0,8.0,68,0.00,,,0.00,WeatherCatV1.15B25,2013-09-07 14:15:00,
2013-09-07 04:20:00,82.8,71.1,30.02,East,100,3.0,9.0,68,0.00,,,0.00,WeatherCatV1.15B25,2013-09-07 14:20:00,
2013-09-07 04:22:00,81.7,70.9,30.02,ENE,77,3.0,5.0,70,0.00,,,0.00,WeatherCatV1.15B25,2013-09-07 14:22:00,
2013-09-07 04:25:00,82.7,70.2,30.02,East,83,4.0,4.0,66,0.00,,,0.00,WeatherCatV1.15B25,2013-09-07 14:25:00,
2013-09-07 04:30:00,82.4,71.2,30.02,ENE,75,2.0,4.0,69,0.00,,,0.00,WeatherCatV1.15B25,2013-09-07 14:30:00,
2013-09-07 04:35:00,82.3,71.5,30.02,ENE,76,2.0,4.0,70,0.00,,,0.00,WeatherCatV1.15B25,2013-09-07 14:35:00,
2013-09-07 04:40:00,81.8,71.0,30.02,ENE,70,3.0,5.0,70,0.00,,,0.00,WeatherCatV1.15B25,2013-09-07 14:40:00,
2013-09-07 04:45:00,83.2,71.5,30.02,East,90,3.0,8.0,68,0.00,,,0.00,WeatherCatV1.15B25,2013-09-07 14:45:00,
2013-09-07 04:50:00,82.8,71.1,30.02,East,100,3.0,9.0,68,0.00,,,0.00,WeatherCatV1.15B25,2013-09-07 14:50:00,
2013-09-07 04:52:00,81.7,70.9,30.02,ENE,77,3.0,5.0,70,0.00,,,0.00,WeatherCatV1.15B25,2013-09-07 14:52:00,
2013-09-07 04:55:00,82.7,70.2,30.02,East,83,4.0,4.0,66,0.00,,,0.00,WeatherCatV1.15B25,2013-09-07 14:55:00,
2013-09-07 05:00:00,82.4,71.2,30.02,ENE,75,2.0,4.0,69,0.00,,,0.00,WeatherCatV1.15B25,2013-09-07 15:00:00,
2013-09-07 05:05:00,82.2,71.4,30.02,ENE,77,2.0,7.0,70,0.00,,,0.00,WeatherCatV1.15B25,2013-09-07 15:05:00,
2013-09-07 05:10:00,81.8,71.0,30.02,ENE,73,3.0,3.0,70,0.00,,,0.00,WeatherCatV1.15B25,2013-09-07 15:10:00,
2013-09-07 05:15:00,83.2,71.5,30.02,East,90,3.0,8.0,68,0.00,,,0.00,WeatherCatV1.15B25,2013-09-07 15:15:00,
2013-09-07 05:20:00,82.8,71.1,30.02,East,100,3.0,9.0,68,0.00,,,0.00,WeatherCatV1.15B25,2013-09-07 15:20:00,
2013-09-07 05:21:00,81.7,70.9,30.02,ENE,77,3.0,5.0,70,0.00,,,0.00,WeatherCatV1.15B25,2013-09-07 15:21:00,
2013-09-07 05:25:00,82.7,70.2,30.02,East,83,4.0,4.0,66,0.00,,,0.00,WeatherCatV1.15B25,2013-09-07 15:25:00,
2013-09-07 05:30:00,82.4,71.2,30.02,ENE,75,2.0,4.0,69,0.00,,,0.00,WeatherCatV1.15B25,2013-09-07 15:30:00,
2013-09-07 05:35:00,82.2,71.4,30.02,ENE,77,2.0,7.0,70,0.00,,,0.00,WeatherCatV1.15B25,2013-09-07 15:35:00,
2013-09-07 05:40:00,81.8,71.0,30.02,ENE,73,3.0,3.0,70,0.00,,,0.00,WeatherCatV1.15B25,2013-09-07 15:40:00,
2013-09-07 05:45:00,83.2,71.5,30.02,East,90,3.0,8.0,68,0.00,,,0.00,WeatherCatV1.15B25,2013-09-07 15:45:00,
2013-09-07 05:50:00,82.8,71.1,30.02,East,100,3.0,9.0,68,0.00,,,0.00,WeatherCatV1.15B25,2013-09-07 15:50:00,
2013-09-07 05:51:00,81.7,70.9,30.02,ENE,77,3.0,5.0,70,0.00,,,0.00,WeatherCatV1.15B25,2013-09-07 15:51:00,
2013-09-07 05:55:00,82.7,70.2,30.02,East,83,4.0,4.0,66,0.00,,,0.00,WeatherCatV1.15B25,2013-09-07 15:55:00,
2013-09-07 06:00:00,82.4,71.2,30.02,ENE,75,2.0,4.0,69,0.00,,,0.00,WeatherCatV1.15B25,2013-09-07 16:00:00,
2013-09-07 06:05:00,82.2,71.4,30.02,ENE,77,2.0,7.0,70,0.00,,,0.00,WeatherCatV1.15B25,2013-09-07 16:05:00,
2013-09-07 06:10:00,81.8,71.0,30.02,ENE,73,3.0,3.0,70,0.00,,,0.00,WeatherCatV1.15B25,2013-09-07 16:10:00,
2013-09-07 06:15:00,83.2,71.5,30.02,East,90,3.0,8.0,68,0.00,,,0.00,WeatherCatV1.15B25,2013-09-07 16:15:00,
2013-09-07 06:20:00,82.8,71.1,30.02,East,100,3.0,9.0,68,0.00,,,0.00,WeatherCatV1.15B25,2013-09-07 16:20:00,
2013-09-07 06:21:00,81.7,70.9,30.02,ENE,77,3.0,5.0,70,0.00,,,0.00,WeatherCatV1.15B25,2013-09-07 16:21:00,
2013-09-07 06:25:00,82.7,70.2,30.02,East,83,4.0,4.0,66,0.00,,,0.00,WeatherCatV1.15B25,2013-09-07 16:25:00,
2013-09-07 06:30:00,82.4,71.2,30.02,ENE,75,2.0,4.0,69,0.00,,,0.00,WeatherCatV1.15B25,2013-09-07 16:30:00,
2013-09-07 06:35:00,82.2,71.4,30.02,ENE,77,2.0,7.0,70,0.00,,,0.00,WeatherCatV1.15B25,2013-09-07 16:35:00,
2013-09-07 06:40:00,81.8,71.0,30.02,ENE,73,3.0,3.0,70,0.00,,,0.00,WeatherCatV1.15B25,2013-09-07 16:40:00,
2013-09-07 06:45:00,83.2,71.5,30.02,East,90,3.0,8.0,68,0.00,,,0.00,WeatherCatV1.15B25,2013-09-07 16:45:00,
2013-09-07 06:50:00,82.8,71.1,30.02,East,100,3.0,9.0,68,0.00,,,0.00,WeatherCatV1.15B25,2013-09-07 16:50:00,
2013-09-07 06:51:00,81.7,70.9,30.02,ENE,77,3.0,5.0,70,0.00,,,0.00,WeatherCatV1.15B25,2013-09-07 16:51:00,
2013-09-07 06:55:00,82.7,70.2,30.02,East,83,4.0,4.0,66,0.00,,,0.00,WeatherCatV1.15B25,2013-09-07 16:55:00,
2013-09-07 07:00:00,82.4,71.2,30.02,ENE,75,2.0,4.0,69,0.00,,,0.00,WeatherCatV1.15B25,2013-09-07 17:00:00,
2013-09-07 07:05:00,82.2,71.4,30.02,ENE,77,2.0,7.0,70,0.00,,,0.00,WeatherCatV1.15B25,2013-09-07 17:05:00,
2013-09-07 07:10:00,81.8,71.0,30.02,ENE,73,3.0,3.0,70,0.00,,,0.00,WeatherCatV1.15B25,2013-09-07 17:10:00,
2013-09-07 07:15:00,83.2,71.5,30.02,East,90,3.0,8.0,68,0.00,,,0.00,WeatherCatV1.15B25,2013-09-07 17:15:00,
2013-09-07 07:20:00,82.8,71.1,30.02,East,101,3.0,7.0,68,0.00,,,0.00,WeatherCatV1.15B25,2013-09-07 17:20:00,
2013-09-07 07:21:00,81.7,70.9,30.02,ENE,77,3.0,5.0,70,0.00,,,0.00,WeatherCatV1.15B25,2013-09-07 17:21:00,
2013-09-07 07:25:00,82.7,70.2,30.02,East,83,4.0,4.0,66,0.00,,,0.00,WeatherCatV1.15B25,2013-09-07 17:25:00,
2013-09-07 07:30:00,82.4,71.2,30.02,ENE,75,2.0,4.0,69,0.00,,,0.00,WeatherCatV1.15B25,2013-09-07 17:30:00,
2013-09-07 07:35:00,82.2,71.4,30.02,ENE,77,2.0,7.0,70,0.00,,,0.00,WeatherCatV1.15B25,2013-09-07 17:35:00,
2013-09-07 07:40:00,81.8,71.0,30.02,ENE,73,3.0,3.0,70,0.00,,,0.00,WeatherCatV1.15B25,2013-09-07 17:40:00,
2013-09-07 07:50:00,82.9,71.2,30.02,East,94,2.0,6.0,68,0.00,,,0.00,WeatherCatV1.15B25,2013-09-07 17:50:00,
2013-09-07 07:51:00,81.7,70.9,30.02,ENE,77,3.0,5.0,70,0.00,,,0.00,WeatherCatV1.15B25,2013-09-07 17:51:00,
2013-09-07 07:55:00,82.7,70.6,30.02,East,94,3.0,8.0,67,0.00,,,0.00,WeatherCatV1.15B25,2013-09-07 17:55:00,
2013-09-07 08:00:00,82.5,70.4,30.02,ENE,74,3.0,4.0,67,0.00,,,0.00,WeatherCatV1.15B25,2013-09-07 18:00:00,
2013-09-07 08:05:00,82.4,71.2,30.02,ENE,78,2.0,4.0,69,0.00,,,0.00,WeatherCatV1.15B25,2013-09-07 18:05:00,
2013-09-07 08:10:00,81.9,70.7,30.02,ENE,72,3.0,8.0,69,0.00,,,0.00,WeatherCatV1.15B25,2013-09-07 18:10:00,
2013-09-07 08:20:00,82.9,71.2,30.02,East,94,2.0,6.0,68,0.00,,,0.00,WeatherCatV1.15B25,2013-09-07 18:20:00,
2013-09-07 08:23:00,81.8,71.0,30.02,ENE,77,3.0,7.0,70,0.00,,,0.00,WeatherCatV1.15B25,2013-09-07 18:23:00,
2013-09-07 08:25:00,82.7,70.6,30.02,East,89,4.0,7.0,67,0.00,,,0.00,WeatherCatV1.15B25,2013-09-07 18:25:00,
2013-09-07 08:30:00,82.4,71.2,30.02,ENE,74,3.0,4.0,69,0.00,,,0.00,WeatherCatV1.15B25,2013-09-07 18:30:00,
2013-09-07 08:35:00,82.4,71.2,30.02,ENE,78,2.0,4.0,69,0.00,,,0.00,WeatherCatV1.15B25,2013-09-07 18:35:00,
2013-09-07 08:40:00,81.9,70.7,30.02,ENE,72,3.0,8.0,69,0.00,,,0.00,WeatherCatV1.15B25,2013-09-07 18:40:00,
2013-09-07 08:50:00,82.9,71.2,30.02,East,94,2.0,6.0,68,0.00,,,0.00,WeatherCatV1.15B25,2013-09-07 18:50:00,
2013-09-07 08:53:00,81.8,71.0,30.02,ENE,77,3.0,7.0,70,0.00,,,0.00,WeatherCatV1.15B25,2013-09-07 18:53:00,
2013-09-07 08:55:00,82.7,70.6,30.02,East,89,4.0,7.0,67,0.00,,,0.00,WeatherCatV1.15B25,2013-09-07 18:55:00,
2013-09-07 09:00:00,82.4,71.2,30.02,ENE,74,3.0,4.0,69,0.00,,,0.00,WeatherCatV1.15B25,2013-09-07 19:00:00,
2013-09-07 09:05:00,82.3,71.5,30.02,ENE,76,2.0,4.0,70,0.00,,,0.00,WeatherCatV1.15B25,2013-09-07 19:05:00,
2013-09-07 09:10:00,81.8,71.0,30.02,ENE,70,3.0,5.0,70,0.00,,,0.00,WeatherCatV1.15B25,2013-09-07 19:10:00,
2013-09-07 09:20:00,82.9,71.2,30.02,East,94,2.0,6.0,68,0.00,,,0.00,WeatherCatV1.15B25,2013-09-07 19:20:00,
2013-09-07 09:22:00,81.7,70.9,30.02,ENE,77,3.0,5.0,70,0.00,,,0.00,WeatherCatV1.15B25,2013-09-07 19:22:00,
2013-09-07 09:25:00,82.7,70.6,30.02,East,89,4.0,7.0,67,0.00,,,0.00,WeatherCatV1.15B25,2013-09-07 19:25:00,
2013-09-07 09:30:00,82.4,71.2,30.02,ENE,74,3.0,4.0,69,0.00,,,0.00,WeatherCatV1.15B25,2013-09-07 19:30:00,
2013-09-07 09:35:00,82.3,71.5,30.02,ENE,76,2.0,4.0,70,0.00,,,0.00,WeatherCatV1.15B25,2013-09-07 19:35:00,
2013-09-07 09:40:00,81.8,71.0,30.02,ENE,70,3.0,5.0,70,0.00,,,0.00,WeatherCatV1.15B25,2013-09-07 19:40:00,
2013-09-07 09:50:00,82.9,71.2,30.02,East,94,2.0,6.0,68,0.00,,,0.00,WeatherCatV1.15B25,2013-09-07 19:50:00,
2013-09-07 09:52:00,81.7,70.9,30.02,ENE,77,3.0,5.0,70,0.00,,,0.00,WeatherCatV1.15B25,2013-09-07 19:52:00,
2013-09-07 09:55:00,82.7,70.6,30.02,East,89,4.0,7.0,67,0.00,,,0.00,WeatherCatV1.15B25,2013-09-07 19:55:00,
2013-09-07 10:00:00,82.4,71.2,30.02,ENE,74,3.0,4.0,69,0.00,,,0.00,WeatherCatV1.15B25,2013-09-07 20:00:00,
2013-09-07 10:05:00,82.3,71.5,30.02,ENE,76,2.0,4.0,70,0.00,,,0.00,WeatherCatV1.15B25,2013-09-07 20:05:00,
2013-09-07 10:10:00,81.8,71.0,30.02,ENE,70,3.0,5.0,70,0.00,,,0.00,WeatherCatV1.15B25,2013-09-07 20:10:00,
2013-09-07 10:20:00,82.9,71.2,30.02,East,94,2.0,6.0,68,0.00,,,0.00,WeatherCatV1.15B25,2013-09-07 20:20:00,
2013-09-07 10:22:00,81.7,70.9,30.02,ENE,77,3.0,5.0,70,0.00,,,0.00,WeatherCatV1.15B25,2013-09-07 20:22:00,
2013-09-07 10:25:00,82.7,70.6,30.02,East,89,4.0,7.0,67,0.00,,,0.00,WeatherCatV1.15B25,2013-09-07 20:25:00,
2013-09-07 10:30:00,82.4,71.2,30.02,ENE,74,3.0,4.0,69,0.00,,,0.00,WeatherCatV1.15B25,2013-09-07 20:30:00,
2013-09-07 10:35:00,82.3,71.5,30.02,ENE,76,2.0,4.0,70,0.00,,,0.00,WeatherCatV1.15B25,2013-09-07 20:35:00,
2013-09-07 10:40:00,81.8,71.0,30.02,ENE,70,3.0,5.0,70,0.00,,,0.00,WeatherCatV1.15B25,2013-09-07 20:40:00,
2013-09-07 10:50:00,82.9,71.2,30.02,East,94,2.0,6.0,68,0.00,,,0.00,WeatherCatV1.15B25,2013-09-07 20:50:00,
2013-09-07 10:52:00,81.7,70.9,30.02,ENE,77,3.0,5.0,70,0.00,,,0.00,WeatherCatV1.15B25,2013-09-07 20:52:00,
2013-09-07 10:55:00,82.7,70.6,30.02,East,89,4.0,7.0,67,0.00,,,0.00,WeatherCatV1.15B25,2013-09-07 20:55:00,
2013-09-07 11:00:00,82.4,71.2,30.02,ENE,74,3.0,4.0,69,0.00,,,0.00,WeatherCatV1.15B25,2013-09-07 21:00:00,
2013-09-07 11:05:00,82.3,71.5,30.02,ENE,76,2.0,4.0,70,0.00,,,0.00,WeatherCatV1.15B25,2013-09-07 21:05:00,
2013-09-07 11:10:00,81.8,71.0,30.02,ENE,70,3.0,5.0,70,0.00,,,0.00,WeatherCatV1.15B25,2013-09-07 21:10:00,
2013-09-07 11:20:00,82.9,71.2,30.02,East,94,2.0,6.0,68,0.00,,,0.00,WeatherCatV1.15B25,2013-09-07 21:20:00,
2013-09-07 11:22:00,81.7,70.9,30.02,ENE,77,3.0,5.0,70,0.00,,,0.00,WeatherCatV1.15B25,2013-09-07 21:22:00,
2013-09-07 11:25:00,82.7,70.6,30.02,East,89,4.0,7.0,67,0.00,,,0.00,WeatherCatV1.15B25,2013-09-07 21:25:00,
2013-09-07 11:30:00,82.4,71.2,30.02,ENE,74,3.0,4.0,69,0.00,,,0.00,WeatherCatV1.15B25,2013-09-07 21:30:00,
2013-09-07 11:35:00,82.3,71.5,30.02,ENE,76,2.0,4.0,70,0.00,,,0.00,WeatherCatV1.15B25,2013-09-07 21:35:00,
2013-09-07 11:40:00,81.8,71.0,30.02,ENE,70,3.0,5.0,70,0.00,,,0.00,WeatherCatV1.15B25,2013-09-07 21:40:00,
2013-09-07 11:45:00,83.2,71.5,30.02,East,90,3.0,8.0,68,0.00,,,0.00,WeatherCatV1.15B25,2013-09-07 21:45:00,
2013-09-07 11:50:00,82.8,71.1,30.02,East,100,3.0,9.0,68,0.00,,,0.00,WeatherCatV1.15B25,2013-09-07 21:50:00,
2013-09-07 11:52:00,81.7,70.9,30.02,ENE,77,3.0,5.0,70,0.00,,,0.00,WeatherCatV1.15B25,2013-09-07 21:52:00,
2013-09-07 11:55:00,82.7,70.6,30.02,East,89,4.0,7.0,67,0.00,,,0.00,WeatherCatV1.15B25,2013-09-07 21:55:00,
2013-09-07 12:00:00,82.4,71.2,30.02,ENE,74,3.0,4.0,69,0.00,,,0.00,WeatherCatV1.15B25,2013-09-07 22:00:00,
2013-09-07 12:05:00,82.3,71.5,30.02,ENE,76,2.0,4.0,70,0.00,,,0.00,WeatherCatV1.15B25,2013-09-07 22:05:00,
2013-09-07 12:10:00,81.8,71.0,30.02,ENE,70,3.0,5.0,70,0.00,,,0.00,WeatherCatV1.15B25,2013-09-07 22:10:00,
2013-09-07 12:15:00,83.2,71.5,30.02,East,90,3.0,8.0,68,0.00,,,0.00,WeatherCatV1.15B25,2013-09-07 22:15:00,
2013-09-07 12:20:00,82.8,71.1,30.02,East,100,3.0,9.0,68,0.00,,,0.00,WeatherCatV1.15B25,2013-09-07 22:20:00,
2013-09-07 12:22:00,81.7,70.9,30.02,ENE,77,3.0,5.0,70,0.00,,,0.00,WeatherCatV1.15B25,2013-09-07 22:22:00,
2013-09-07 12:25:00,82.7,70.2,30.02,East,83,4.0,4.0,66,0.00,,,0.00,WeatherCatV1.15B25,2013-09-07 22:25:00,
2013-09-07 12:30:00,82.4,71.2,30.02,ENE,74,3.0,4.0,69,0.00,,,0.00,WeatherCatV1.15B25,2013-09-07 22:30:00,
2013-09-07 12:35:00,82.3,71.5,30.02,ENE,76,2.0,4.0,70,0.00,,,0.00,WeatherCatV1.15B25,2013-09-07 22:35:00,
2013-09-07 12:40:00,81.8,71.0,30.02,ENE,70,3.0,5.0,70,0.00,,,0.00,WeatherCatV1.15B25,2013-09-07 22:40:00,
2013-09-07 12:45:00,83.2,71.5,30.02,East,90,3.0,8.0,68,0.00,,,0.00,WeatherCatV1.15B25,2013-09-07 22:45:00,
2013-09-07 12:50:00,82.9,71.2,30.02,East,94,2.0,6.0,68,0.00,,,0.00,WeatherCatV1.15B25,2013-09-07 22:50:00,
2013-09-07 12:52:00,81.7,70.9,30.02,ENE,77,3.0,5.0,70,0.00,,,0.00,WeatherCatV1.15B25,2013-09-07 22:52:00,
2013-09-07 12:55:00,82.7,70.6,30.02,East,89,4.0,7.0,67,0.00,,,0.00,WeatherCatV1.15B25,2013-09-07 22:55:00,
2013-09-07 13:00:00,82.4,71.2,30.02,ENE,74,3.0,4.0,69,0.00,,,0.00,WeatherCatV1.15B25,2013-09-07 23:00:00,
2013-09-07 13:05:00,82.3,71.5,30.02,ENE,76,2.0,4.0,70,0.00,,,0.00,WeatherCatV1.15B25,2013-09-07 23:05:00,
2013-09-07 13:10:00,81.8,71.0,30.02,ENE,70,3.0,5.0,70,0.00,,,0.00,WeatherCatV1.15B25,2013-09-07 23:10:00,
2013-09-07 13:15:00,83.2,71.1,30.02,East,92,2.0,8.0,67,0.00,,,0.00,WeatherCatV1.15B25,2013-09-07 23:15:00,
2013-09-07 13:20:00,82.9,71.2,30.02,East,90,2.0,9.0,68,0.00,,,0.00,WeatherCatV1.15B25,2013-09-07 23:20:00,
2013-09-07 13:23:00,81.8,71.0,30.02,ENE,77,3.0,7.0,70,0.00,,,0.00,WeatherCatV1.15B25,2013-09-07 23:23:00,
2013-09-07 13:25:00,82.7,70.6,30.02,East,94,3.0,8.0,67,0.00,,,0.00,WeatherCatV1.15B25,2013-09-07 23:25:00,
2013-09-07 13:30:00,82.5,70.4,30.02,ENE,74,3.0,4.0,67,0.00,,,0.00,WeatherCatV1.15B25,2013-09-07 23:30:00,
2013-09-07 13:35:00,82.4,71.2,30.02,ENE,78,2.0,4.0,69,0.00,,,0.00,WeatherCatV1.15B25,2013-09-07 23:35:00,
2013-09-07 13:40:00,81.9,70.7,30.02,ENE,72,3.0,8.0,69,0.00,,,0.00,WeatherCatV1.15B25,2013-09-07 23:40:00,
2013-09-07 13:45:00,83.2,71.5,30.02,East,90,3.0,8.0,68,0.00,,,0.00,WeatherCatV1.15B25,2013-09-07 23:45:00,
2013-09-07 13:50:00,82.8,71.1,30.02,East,100,3.0,9.0,68,0.00,,,0.00,WeatherCatV1.15B25,2013-09-07 23:50:00,
2013-09-07 13:53:00,81.8,71.0,30.02,ENE,77,3.0,7.0,70,0.00,,,0.00,WeatherCatV1.15B25,2013-09-07 23:53:00,
2013-09-07 13:55:00,82.7,70.2,30.02,East,83,4.0,4.0,66,0.00,,,0.00,WeatherCatV1.15B25,2013-09-07 23:55:00,
2013-09-07 14:00:00,82.4,71.2,30.02,ENE,75,2.0,4.0,69,0.00,,,0.00,WeatherCatV1.15B25,2013-09-08 00:00:00,
2013-09-07 14:05:00,82.2,71.4,30.02,ENE,77,2.0,7.0,70,0.00,,,0.00,WeatherCatV1.15B25,2013-09-08 00:05:00,
2013-09-07 14:10:00,81.8,71.0,30.02,ENE,73,3.0,3.0,70,0.00,,,0.00,WeatherCatV1.15B25,2013-09-08 00:10:00,
2013-09-07 14:15:00,83.2,71.1,30.02,East,92,2.0,8.0,67,0.00,,,0.00,WeatherCatV1.15B25,2013-09-08 00:15:00,
2013-09-07 14:20:00,82.9,71.2,30.02,East,90,2.0,9.0,68,0.00,,,0.00,WeatherCatV1.15B25,2013-09-08 00:20:00,
2013-09-07 14:21:00,81.7,70.9,30.02,ENE,77,3.0,5.0,70,0.00,,,0.00,WeatherCatV1.15B25,2013-09-08 00:21:00,
2013-09-07 14:25:00,82.7,70.6,30.02,East,94,3.0,8.0,67,0.00,,,0.00,WeatherCatV1.15B25,2013-09-08 00:25:00,
2013-09-07 14:30:00,82.5,70.4,30.02,ENE,74,3.0,4.0,67,0.00,,,0.00,WeatherCatV1.15B25,2013-09-08 00:30:00,
2013-09-07 14:35:00,82.4,71.2,30.02,ENE,78,2.0,4.0,69,0.00,,,0.00,WeatherCatV1.15B25,2013-09-08 00:35:00,
2013-09-07 14:40:00,81.9,70.7,30.02,ENE,72,3.0,8.0,69,0.00,,,0.00,WeatherCatV1.15B25,2013-09-08 00:40:00,
2013-09-07 14:45:00,83.2,71.5,30.02,East,90,3.0,8.0,68,0.00,,,0.00,WeatherCatV1.15B25,2013-09-08 00:45:00,
2013-09-07 14:50:00,82.8,71.1,30.02,East,100,3.0,9.0,68,0.00,,,0.00,WeatherCatV1.15B25,2013-09-08 00:50:00,
2013-09-07 14:53:00,81.8,71.0,30.02,ENE,77,3.0,7.0,70,0.00,,,0.00,WeatherCatV1.15B25,2013-09-08 00:53:00,
2013-09-07 14:55:00,82.7,70.2,30.02,East,83,4.0,4.0,66,0.00,,,0.00,WeatherCatV1.15B25,2013-09-08 00:55:00,
2013-09-07 15:00:00,82.4,71.2,30.02,ENE,75,2.0,4.0,69,0.00,,,0.00,WeatherCatV1.15B25,2013-09-08 01:00:00,
2013-09-07 15:05:00,82.2,71.4,30.02,ENE,77,2.0,7.0,70,0.00,,,0.00,WeatherCatV1.15B25,2013-09-08 01:05:00,
2013-09-07 15:10:00,81.8,71.0,30.02,ENE,73,3.0,3.0,70,0.00,,,0.00,WeatherCatV1.15B25,2013-09-08 01:10:00,
2013-09-07 15:20:00,82.9,71.2,30.02,East,90,2.0,9.0,68,0.00,,,0.00,WeatherCatV1.15B25,2013-09-08 01:20:00,
2013-09-07 15:21:00,81.7,70.9,30.02,ENE,77,3.0,5.0,70,0.00,,,0.00,WeatherCatV1.15B25,2013-09-08 01:21:00,
2013-09-07 15:25:00,82.7,70.6,30.02,East,94,3.0,8.0,67,0.00,,,0.00,WeatherCatV1.15B25,2013-09-08 01:25:00,
2013-09-07 15:30:00,82.5,70.4,30.02,ENE,74,3.0,4.0,67,0.00,,,0.00,WeatherCatV1.15B25,2013-09-08 01:30:00,
2013-09-07 15:35:00,82.4,71.2,30.02,ENE,78,2.0,4.0,69,0.00,,,0.00,WeatherCatV1.15B25,2013-09-08 01:35:00,
2013-09-07 15:40:00,81.9,70.7,30.02,ENE,72,3.0,8.0,69,0.00,,,0.00,WeatherCatV1.15B25,2013-09-08 01:40:00,
2013-09-07 15:50:00,82.9,71.2,30.02,East,90,2.0,9.0,68,0.00,,,0.00,WeatherCatV1.15B25,2013-09-08 01:50:00,
2013-09-07 15:53:00,81.8,71.0,30.02,ENE,77,3.0,7.0,70,0.00,,,0.00,WeatherCatV1.15B25,2013-09-08 01:53:00,
2013-09-07 15:55:00,82.7,70.6,30.02,East,94,3.0,8.0,67,0.00,,,0.00,WeatherCatV1.15B25,2013-09-08 01:55:00,
2013-09-07 16:00:00,82.5,70.4,30.02,ENE,74,3.0,4.0,67,0.00,,,0.00,WeatherCatV1.15B25,2013-09-08 02:00:00,
2013-09-07 16:05:00,82.4,71.2,30.02,ENE,78,2.0,4.0,69,0.00,,,0.00,WeatherCatV1.15B25,2013-09-08 02:05:00,
2013-09-07 16:10:00,81.9,70.7,30.02,ENE,72,3.0,8.0,69,0.00,,,0.00,WeatherCatV1.15B25,2013-09-08 02:10:00,
2013-09-07 16:20:00,82.9,71.2,30.02,East,94,2.0,6.0,68,0.00,,,0.00,WeatherCatV1.15B25,2013-09-08 02:20:00,
2013-09-07 16:23:00,81.8,71.0,30.02,ENE,77,3.0,7.0,70,0.00,,,0.00,WeatherCatV1.15B25,2013-09-08 02:23:00,
2013-09-07 16:25:00,82.7,70.6,30.02,East,89,4.0,7.0,67,0.00,,,0.00,WeatherCatV1.15B25,2013-09-08 02:25:00,
2013-09-07 16:30:00,82.4,71.2,30.02,ENE,74,3.0,4.0,69,0.00,,,0.00,WeatherCatV1.15B25,2013-09-08 02:30:00,
2013-09-07 16:35:00,82.3,71.5,30.02,ENE,76,2.0,4.0,70,0.00,,,0.00,WeatherCatV1.15B25,2013-09-08 02:35:00,
2013-09-07 16:40:00,81.9,70.7,30.02,ENE,72,3.0,8.0,69,0.00,,,0.00,WeatherCatV1.15B25,2013-09-08 02:40:00,
2013-09-07 16:50:00,82.9,71.2,30.02,East,94,2.0,6.0,68,0.00,,,0.00,WeatherCatV1.15B25,2013-09-08 02:50:00,
2013-09-07 16:53:00,81.8,71.0,30.02,ENE,77,3.0,7.0,70,0.00,,,0.00,WeatherCatV1.15B25,2013-09-08 02:53:00,
2013-09-07 16:55:00,82.7,70.6,30.02,East,89,4.0,7.0,67,0.00,,,0.00,WeatherCatV1.15B25,2013-09-08 02:55:00,
2013-09-07 17:00:00,82.4,71.2,30.02,ENE,74,3.0,4.0,69,0.00,,,0.00,WeatherCatV1.15B25,2013-09-08 03:00:00,
2013-09-07 17:05:00,82.3,71.5,30.02,ENE,76,2.0,4.0,70,0.00,,,0.00,WeatherCatV1.15B25,2013-09-08 03:05:00,
2013-09-07 17:10:00,81.8,71.0,30.02,ENE,70,3.0,5.0,70,0.00,,,0.00,WeatherCatV1.15B25,2013-09-08 03:10:00,
2013-09-07 17:20:00,82.9,71.2,30.02,East,94,2.0,6.0,68,0.00,,,0.00,WeatherCatV1.15B25,2013-09-08 03:20:00,
2013-09-07 17:22:00,81.7,70.9,30.02,ENE,77,3.0,5.0,70,0.00,,,0.00,WeatherCatV1.15B25,2013-09-08 03:22:00,
2013-09-07 17:25:00,82.7,70.6,30.02,East,89,4.0,7.0,67,0.00,,,0.00,WeatherCatV1.15B25,2013-09-08 03:25:00,
2013-09-07 17:30:00,82.4,71.2,30.02,ENE,74,3.0,4.0,69,0.00,,,0.00,WeatherCatV1.15B25,2013-09-08 03:30:00,
2013-09-07 17:35:00,82.3,71.5,30.02,ENE,76,2.0,4.0,70,0.00,,,0.00,WeatherCatV1.15B25,2013-09-08 03:35:00,
2013-09-07 17:40:00,81.8,71.0,30.02,ENE,70,3.0,5.0,70,0.00,,,0.00,WeatherCatV1.15B25,2013-09-08 03:40:00,
2013-09-07 17:50:00,82.9,71.2,30.02,East,94,2.0,6.0,68,0.00,,,0.00,WeatherCatV1.15B25,2013-09-08 03:50:00,
2013-09-07 17:52:00,81.7,70.9,30.02,ENE,77,3.0,5.0,70,0.00,,,0.00,WeatherCatV1.15B25,2013-09-08 03:52:00,
2013-09-07 17:55:00,82.7,70.6,30.02,East,89,4.0,7.0,67,0.00,,,0.00,WeatherCatV1.15B25,2013-09-08 03:55:00,
2013-09-07 18:00:00,82.4,71.2,30.02,ENE,74,3.0,4.0,69,0.00,,,0.00,WeatherCatV1.15B25,2013-09-08 04:00:00,
2013-09-07 18:05:00,82.3,71.5,30.02,ENE,76,2.0,4.0,70,0.00,,,0.00,WeatherCatV1.15B25,2013-09-08 04:05:00,
2013-09-07 18:10:00,81.8,71.0,30.02,ENE,70,3.0,5.0,70,0.00,,,0.00,WeatherCatV1.15B25,2013-09-08 04:10:00,
2013-09-07 18:20:00,82.9,71.2,30.02,East,94,2.0,6.0,68,0.00,,,0.00,WeatherCatV1.15B25,2013-09-08 04:20:00,
2013-09-07 18:22:00,81.7,70.9,30.02,ENE,77,3.0,5.0,70,0.00,,,0.00,WeatherCatV1.15B25,2013-09-08 04:22:00,
2013-09-07 18:25:00,82.7,70.6,30.02,East,89,4.0,7.0,67,0.00,,,0.00,WeatherCatV1.15B25,2013-09-08 04:25:00,
2013-09-07 18:30:00,82.4,71.2,30.02,ENE,74,3.0,4.0,69,0.00,,,0.00,WeatherCatV1.15B25,2013-09-08 04:30:00,
2013-09-07 18:35:00,82.3,71.5,30.02,ENE,76,2.0,4.0,70,0.00,,,0.00,WeatherCatV1.15B25,2013-09-08 04:35:00,
2013-09-07 18:40:00,81.8,71.0,30.02,ENE,70,3.0,5.0,70,0.00,,,0.00,WeatherCatV1.15B25,2013-09-08 04:40:00,
2013-09-07 18:50:00,82.9,71.2,30.02,East,94,2.0,6.0,68,0.00,,,0.00,WeatherCatV1.15B25,2013-09-08 04:50:00,
2013-09-07 18:52:00,81.7,70.9,30.02,ENE,77,3.0,5.0,70,0.00,,,0.00,WeatherCatV1.15B25,2013-09-08 04:52:00,
2013-09-07 18:55:00,82.7,70.6,30.02,East,89,4.0,7.0,67,0.00,,,0.00,WeatherCatV1.15B25,2013-09-08 04:55:00,
2013-09-07 19:00:00,82.4,71.2,30.02,ENE,74,3.0,4.0,69,0.00,,,0.00,WeatherCatV1.15B25,2013-09-08 05:00:00,
2013-09-07 19:05:00,82.3,71.5,30.02,ENE,76,2.0,4.0,70,0.00,,,0.00,WeatherCatV1.15B25,2013-09-08 05:05:00,
2013-09-07 19:10:00,81.8,71.0,30.02,ENE,70,3.0,5.0,70,0.00,,,0.00,WeatherCatV1.15B25,2013-09-08 05:10:00,
2013-09-07 19:20:00,82.9,71.2,30.02,East,94,2.0,6.0,68,0.00,,,0.00,WeatherCatV1.15B25,2013-09-08 05:20:00,
2013-09-07 19:22:00,81.7,70.9,30.02,ENE,77,3.0,5.0,70,0.00,,,0.00,WeatherCatV1.15B25,2013-09-08 05:22:00,
2013-09-07 19:25:00,82.7,70.6,30.02,East,89,4.0,7.0,67,0.00,,,0.00,WeatherCatV1.15B25,2013-09-08 05:25:00,
2013-09-07 19:30:00,82.4,71.2,30.02,ENE,74,3.0,4.0,69,0.00,,,0.00,WeatherCatV1.15B25,2013-09-08 05:30:00,
2013-09-07 19:35:00,82.3,71.5,30.02,ENE,76,2.0,4.0,70,0.00,,,0.00,WeatherCatV1.15B25,2013-09-08 05:35:00,
2013-09-07 19:40:00,81.8,71.0,30.02,ENE,70,3.0,5.0,70,0.00,,,0.00,WeatherCatV1.15B25,2013-09-08 05:40:00,
2013-09-07 19:45:00,83.2,71.5,30.02,East,90,3.0,8.0,68,0.00,,,0.00,WeatherCatV1.15B25,2013-09-08 05:45:00,
2013-09-07 19:50:00,82.8,71.1,30.02,East,100,3.0,9.0,68,0.00,,,0.00,WeatherCatV1.15B25,2013-09-08 05:50:00,
2013-09-07 19:52:00,81.7,70.9,30.02,ENE,77,3.0,5.0,70,0.00,,,0.00,WeatherCatV1.15B25,2013-09-08 05:52:00,
2013-09-07 19:55:00,82.7,70.2,30.02,East,83,4.0,4.0,66,0.00,,,0.00,WeatherCatV1.15B25,2013-09-08 05:55:00,
2013-09-07 20:00:00,82.4,71.2,30.02,ENE,74,3.0,4.0,69,0.00,,,0.00,WeatherCatV1.15B25,2013-09-08 06:00:00,
2013-09-07 20:05:00,82.3,71.5,30.02,ENE,76,2.0,4.0,70,0.00,,,0.00,WeatherCatV1.15B25,2013-09-08 06:05:00,
2013-09-07 20:10:00,81.8,71.0,30.02,ENE,70,3.0,5.0,70,0.00,,,0.00,WeatherCatV1.15B25,2013-09-08 06:10:00,
2013-09-07 20:15:00,83.2,71.5,30.02,East,90,3.0,8.0,68,0.00,,,0.00,WeatherCatV1.15B25,2013-09-08 06:15:00,
2013-09-07 20:20:00,82.8,71.1,30.02,East,100,3.0,9.0,68,0.00,,,0.00,WeatherCatV1.15B25,2013-09-08 06:20:00,
2013-09-07 20:22:00,81.7,70.9,30.02,ENE,77,3.0,5.0,70,0.00,,,0.00,WeatherCatV1.15B25,2013-09-08 06:22:00,
2013-09-07 20:25:00,82.7,70.2,30.02,East,83,4.0,4.0,66,0.00,,,0.00,WeatherCatV1.15B25,2013-09-08 06:25:00,
2013-09-07 20:30:00,82.4,71.2,30.02,ENE,75,2.0,4.0,69,0.00,,,0.00,WeatherCatV1.15B25,2013-09-08 06:30:00,
2013-09-07 20:35:00,82.2,71.4,30.02,ENE,77,2.0,7.0,70,0.00,,,0.00,WeatherCatV1.15B25,2013-09-08 06:35:00,
2013-09-07 20:40:00,81.8,71.0,30.02,ENE,73,3.0,3.0,70,0.00,,,0.00,WeatherCatV1.15B25,2013-09-08 06:40:00,
2013-09-07 20:45:00,83.2,71.5,30.02,East,90,3.0,8.0,68,0.00,,,0.00,WeatherCatV1.15B25,2013-09-08 06:45:00,
2013-09-07 20:50:00,82.8,71.1,30.02,East,100,3.0,9.0,68,0.00,,,0.00,WeatherCatV1.15B25,2013-09-08 06:50:00,
2013-09-07 20:52:00,81.7,70.9,30.02,ENE,77,3.0,5.0,70,0.00,,,0.00,WeatherCatV1.15B25,2013-09-08 06:52:00,
2013-09-07 20:55:00,82.7,70.2,30.02,East,83,4.0,4.0,66,0.00,,,0.00,WeatherCatV1.15B25,2013-09-08 06:55:00,
2013-09-07 21:00:00,82.4,71.2,30.02,ENE,75,2.0,4.0,69,0.00,,,0.00,WeatherCatV1.15B25,2013-09-08 07:00:00,
2013-09-07 21:05:00,82.2,71.4,30.02,ENE,77,2.0,7.0,70,0.00,,,0.00,WeatherCatV1.15B25,2013-09-08 07:05:00,
2013-09-07 21:10:00,81.8,71.0,30.02,ENE,73,3.0,3.0,70,0.00,,,0.00,WeatherCatV1.15B25,2013-09-08 07:10:00,
2013-09-07 21:15:00,83.2,71.5,30.02,East,90,3.0,8.0,68,0.00,,,0.00,WeatherCatV1.15B25,2013-09-08 07:15:00,
2013-09-07 21:20:00,82.8,71.1,30.02,East,100,3.0,9.0,68,0.00,,,0.00,WeatherCatV1.15B25,2013-09-08 07:20:00,
2013-09-07 21:21:00,81.7,70.9,30.02,ENE,77,3.0,5.0,70,0.00,,,0.00,WeatherCatV1.15B25,2013-09-08 07:21:00,
2013-09-07 21:25:00,82.7,70.2,30.02,East,83,4.0,4.0,66,0.00,,,0.00,WeatherCatV1.15B25,2013-09-08 07:25:00,
2013-09-07 21:30:00,82.4,71.2,30.02,ENE,75,2.0,4.0,69,0.00,,,0.00,WeatherCatV1.15B25,2013-09-08 07:30:00,
2013-09-07 21:35:00,82.2,71.4,30.02,ENE,77,2.0,7.0,70,0.00,,,0.00,WeatherCatV1.15B25,2013-09-08 07:35:00,
2013-09-07 21:40:00,81.8,71.0,30.02,ENE,73,3.0,3.0,70,0.00,,,0.00,WeatherCatV1.15B25,2013-09-08 07:40:00,
2013-09-07 21:45:00,83.2,71.5,30.02,East,90,3.0,8.0,68,0.00,,,0.00,WeatherCatV1.15B25,2013-09-08 07:45:00,
2013-09-07 21:50:00,82.8,71.1,30.02,East,100,3.0,9.0,68,0.00,,,0.00,WeatherCatV1.15B25,2013-09-08 07:50:00,
2013-09-07 21:51:00,81.7,70.9,30.02,ENE,77,3.0,5.0,70,0.00,,,0.00,WeatherCatV1.15B25,2013-09-08 07:51:00,
2013-09-07 21:55:00,82.7,70.2,30.02,East,83,4.0,4.0,66,0.00,,,0.00,WeatherCatV1.15B25,2013-09-08 07:55:00,
2013-09-07 22:00:00,82.4,71.2,30.02,ENE,75,2.0,4.0,69,0.00,,,0.00,WeatherCatV1.15B25,2013-09-08 08:00:00,
2013-09-07 22:05:00,82.2,71.4,30.02,ENE,77,2.0,7.0,70,0.00,,,0.00,WeatherCatV1.15B25,2013-09-08 08:05:00,
2013-09-07 22:10:00,81.8,71.0,30.02,ENE,73,3.0,3.0,70,0.00,,,0.00,WeatherCatV1.15B25,2013-09-08 08:10:00,
2013-09-07 22:15:00,83.2,71.5,30.02,East,90,3.0,8.0,68,0.00,,,0.00,WeatherCatV1.15B25,2013-09-08 08:15:00,
2013-09-07 22:20:00,82.8,71.1,30.02,East,100,3.0,9.0,68,0.00,,,0.00,WeatherCatV1.15B25,2013-09-08 08:20:00,
2013-09-07 22:21:00,81.7,70.9,30.02,ENE,77,3.0,5.0,70,0.00,,,0.00,WeatherCatV1.15B25,2013-09-08 08:21:00,
2013-09-07 22:25:00,82.7,70.2,30.02,East,83,4.0,4.0,66,0.00,,,0.00,WeatherCatV1.15B25,2013-09-08 08:25:00,
2013-09-07 22:30:00,82.4,71.2,30.02,ENE,75,2.0,4.0,69,0.00,,,0.00,WeatherCatV1.15B25,2013-09-08 08:30:00,
2013-09-07 22:35:00,82.2,71.4,30.02,ENE,77,2.0,7.0,70,0.00,,,0.00,WeatherCatV1.15B25,2013-09-08 08:35:00,
2013-09-07 22:40:00,81.8,71.0,30.02,ENE,73,3.0,3.0,70,0.00,,,0.00,WeatherCatV1.15B25,2013-09-08 08:40:00,
2013-09-07 22:45:00,83.2,71.5,30.02,East,90,3.0,8.0,68,0.00,,,0.00,WeatherCatV1.15B25,2013-09-08 08:45:00,
2013-09-07 22:50:00,82.8,71.1,30.02,East,100,3.0,9.0,68,0.00,,,0.00,WeatherCatV1.15B25,2013-09-08 08:50:00,
2013-09-07 22:51:00,81.7,70.9,30.02,ENE,77,3.0,5.0,70,0.00,,,0.00,WeatherCatV1.15B25,2013-09-08 08:51:00,
2013-09-07 22:55:00,82.7,70.2,30.02,East,83,4.0,4.0,66,0.00,,,0.00,WeatherCatV1.15B25,2013-09-08 08:55:00,
2013-09-07 23:00:00,82.4,71.2,30.02,ENE,75,2.0,4.0,69,0.00,,,0.00,WeatherCatV1.15B25,2013-09-08 09:00:00,
2013-09-07 23:05:00,82.2,71.4,30.02,ENE,77,2.0,7.0,70,0.00,,,0.00,WeatherCatV1.15B25,2013-09-08 09:05:00,
2013-09-07 23:10:00,81.8,71.0,30.02,ENE,73,3.0,3.0,70,0.00,,,0.00,WeatherCatV1.15B25,2013-09-08 09:10:00,
2013-09-07 23:15:00,83.2,71.5,30.02,East,90,3.0,8.0,68,0.00,,,0.00,WeatherCatV1.15B25,2013-09-08 09:15:00,
2013-09-07 23:20:00,82.8,71.1,30.02,East,100,3.0,9.0,68,0.00,,,0.00,WeatherCatV1.15B25,2013-09-08 09:20:00,
2013-09-07 23:21:00,81.7,70.9,30.02,ENE,77,3.0,5.0,70,0.00,,,0.00,WeatherCatV1.15B25,2013-09-08 09:21:00,
2013-09-07 23:25:00,82.7,70.2,30.02,East,83,4.0,4.0,66,0.00,,,0.00,WeatherCatV1.15B25,2013-09-08 09:25:00,
2013-09-07 23:30:00,82.4,71.2,30.02,ENE,75,2.0,4.0,69,0.00,,,0.00,WeatherCatV1.15B25,2013-09-08 09:30:00,
2013-09-07 23:35:00,82.2,71.4,30.02,ENE,77,2.0,7.0,70,0.00,,,0.00,WeatherCatV1.15B25,2013-09-08 09:35:00,
2013-09-07 23:40:00,81.8,71.0,30.02,ENE,73,3.0,3.0,70,0.00,,,0.00,WeatherCatV1.15B25,2013-09-08 09:40:00,
2013-09-07 23:50:00,82.9,71.2,30.02,East,94,2.0,6.0,68,0.00,,,0.00,WeatherCatV1.15B25,2013-09-08 09:50:00,
2013-09-07 23:51:00,81.7,70.9,30.02,ENE,77,3.0,5.0,70,0.00,,,0.00,WeatherCatV1.15B25,2013-09-08 09:51:00,
2013-09-07 23:55:00,82.7,70.6,30.02,East,94,3.0,8.0,67,0.00,,,0.00,WeatherCatV1.15B25,2013-09-08 09:55:00,